createdAt,value
2022-11-17T00:00:26.859Z,100010.97
2022-11-17T00:03:29.512Z,99998.25
2022-11-17T00:06:33.534Z,99988.78
2022-11-17T00:09:36.154Z,99992.63
2022-11-17T00:12:56.531Z,99996.56
2022-11-17T00:15:59.145Z,99986.00
2022-11-17T00:19:19.437Z,99977.22
2022-11-17T00:22:24.465Z,99983.00
2022-11-17T00:25:27.085Z,99983.94
2022-11-17T00:28:29.708Z,99986.06
2022-11-17T00:31:51.558Z,99980.91
2022-11-17T00:34:54.229Z,99971.63
2022-11-17T00:38:16.511Z,99965.06
2022-11-17T00:41:19.116Z,99963.44
2022-11-17T00:44:21.753Z,99971.00
2022-11-17T00:47:24.672Z,99963.91
2022-11-17T00:50:27.284Z,99955.31
2022-11-17T00:53:31.320Z,99950.97
2022-11-17T00:56:34.069Z,99944.31
2022-11-17T00:59:36.727Z,99942.31
2022-11-17T01:02:39.364Z,99940.59
2022-11-17T01:05:41.968Z,99937.53
2022-11-17T01:08:46.591Z,99931.41
2022-11-17T01:11:51.257Z,99921.56
2022-11-17T01:14:53.859Z,99924.81
2022-11-17T01:17:56.506Z,99934.38
2022-11-17T01:21:04.938Z,99925.38
2022-11-17T01:24:11.095Z,99913.34
2022-11-17T01:27:13.989Z,99922.16
2022-11-17T01:30:17.730Z,99921.19
2022-11-17T01:33:20.352Z,99919.28
2022-11-17T01:36:24.770Z,99905.56
2022-11-17T01:39:30.255Z,99891.25
2022-11-17T01:42:32.923Z,99895.78
2022-11-17T01:45:35.578Z,99898.84
2022-11-17T01:48:38.239Z,99886.75
2022-11-17T01:51:44.668Z,99873.97
2022-11-17T01:54:49.761Z,99871.09
2022-11-17T01:57:56.779Z,99860.53
2022-11-17T02:00:59.424Z,99858.34
2022-11-17T02:04:02.495Z,99856.81
2022-11-17T02:07:10.986Z,99869.75
2022-11-17T02:10:15.174Z,99861.66
2022-11-17T02:13:17.858Z,99860.91
2022-11-17T02:16:20.476Z,99862.66
2022-11-17T02:19:26.200Z,99858.16
2022-11-17T02:22:58.152Z,99856.19
2022-11-17T02:26:22.366Z,99864.25
2022-11-17T02:29:31.268Z,99862.00
2022-11-17T02:32:46.925Z,99859.69
2022-11-17T02:35:59.411Z,99847.75
2022-11-17T02:39:11.316Z,99850.41
2022-11-17T02:42:42.808Z,99835.88
2022-11-17T02:45:52.044Z,99841.66
2022-11-17T02:48:59.334Z,99823.72
2022-11-17T02:52:03.443Z,99822.78
2022-11-17T02:55:08.969Z,99828.91
2022-11-17T02:58:12.705Z,99839.81
2022-11-17T03:01:35.242Z,99826.94
2022-11-17T03:04:47.913Z,99815.41
2022-11-17T03:08:04.554Z,99824.91
2022-11-17T03:11:09.736Z,99828.97
2022-11-17T03:14:21.228Z,99813.75
2022-11-17T03:17:31.470Z,99821.06
2022-11-17T03:20:40.237Z,99796.53
2022-11-17T03:23:47.962Z,99808.41
2022-11-17T03:26:55.836Z,99803.22
2022-11-17T03:30:02.867Z,99793.59
2022-11-17T03:33:15.080Z,99788.13
2022-11-17T03:36:23.338Z,99781.34
2022-11-17T03:39:31.216Z,99784.19
2022-11-17T03:42:38.146Z,99791.66
2022-11-17T03:45:44.342Z,99804.06
2022-11-17T03:48:54.719Z,99787.59
2022-11-17T03:51:58.337Z,99787.47
2022-11-17T03:55:01.734Z,99770.25
2022-11-17T03:58:08.000Z,99775.34
2022-11-17T04:01:11.821Z,99762.00
2022-11-17T04:04:17.946Z,99763.94
2022-11-17T04:07:20.596Z,99752.78
2022-11-17T04:10:25.714Z,99736.56
2022-11-17T04:13:45.674Z,99740.06
2022-11-17T04:16:48.312Z,99742.34
2022-11-17T04:19:52.258Z,99748.53
2022-11-17T04:23:07.924Z,99745.91
2022-11-17T04:26:29.231Z,99727.31
2022-11-17T04:29:32.184Z,99729.34
2022-11-17T04:32:34.851Z,99727.31
2022-11-17T04:35:38.966Z,99732.47
2022-11-17T04:38:43.514Z,99713.56
2022-11-17T04:41:57.132Z,99725.28
2022-11-17T04:44:59.728Z,99727.50
2022-11-17T04:48:02.425Z,99724.94
2022-11-17T04:51:06.740Z,99724.41
2022-11-17T04:54:10.752Z,99714.13
2022-11-17T04:57:13.347Z,99711.66
2022-11-17T05:00:17.488Z,99695.84
2022-11-17T05:03:20.083Z,99701.38
2022-11-17T05:06:25.915Z,99705.75
2022-11-17T05:09:28.553Z,99706.78
2022-11-17T05:12:48.960Z,99695.72
2022-11-17T05:16:11.271Z,99702.34
2022-11-17T05:19:17.773Z,99707.13
2022-11-17T05:22:53.092Z,99699.34
2022-11-17T05:25:55.699Z,99705.28
2022-11-17T05:29:00.225Z,99694.09
2022-11-17T05:32:02.834Z,99706.75
2022-11-17T05:35:06.192Z,99700.09
2022-11-17T05:38:10.216Z,99689.84
2022-11-17T05:41:12.844Z,99694.19
2022-11-17T05:44:15.464Z,99684.06
2022-11-17T05:47:18.082Z,99690.09
2022-11-17T05:50:20.716Z,99678.44
2022-11-17T05:53:25.342Z,99675.56
2022-11-17T05:56:38.145Z,99687.03
2022-11-17T05:59:44.900Z,99699.28
2022-11-17T06:02:51.009Z,99690.75
2022-11-17T06:05:54.489Z,99689.38
2022-11-17T06:08:58.476Z,99679.41
2022-11-17T06:12:05.626Z,99677.59
2022-11-17T06:15:09.672Z,99664.31
2022-11-17T06:18:17.074Z,99681.06
2022-11-17T06:21:19.752Z,99667.91
2022-11-17T06:24:24.355Z,99674.78
2022-11-17T06:27:27.559Z,99675.72
2022-11-17T06:30:30.853Z,99655.72
2022-11-17T06:33:35.333Z,99657.63
2022-11-17T06:36:38.216Z,99665.97
2022-11-17T06:39:42.188Z,99661.88
2022-11-17T06:43:02.427Z,99656.28
2022-11-17T06:46:06.681Z,99656.47
2022-11-17T06:49:09.393Z,99661.16
2022-11-17T06:52:12.039Z,99647.44
2022-11-17T06:55:16.218Z,99649.88
2022-11-17T06:58:18.840Z,99663.59
2022-11-17T07:01:21.504Z,99651.72
2022-11-17T07:04:24.143Z,99667.31
2022-11-17T07:07:26.854Z,99663.06
2022-11-17T07:10:31.891Z,99654.53
2022-11-17T07:13:35.424Z,99657.97
2022-11-17T07:16:38.019Z,99663.84
2022-11-17T07:19:41.099Z,99662.66
2022-11-17T07:22:43.976Z,99658.75
2022-11-17T07:25:47.936Z,99648.59
2022-11-17T07:28:50.532Z,99662.16
2022-11-17T07:31:53.175Z,99658.13
2022-11-17T07:34:55.809Z,99649.53
2022-11-17T07:38:01.227Z,99661.50
2022-11-17T07:41:05.531Z,99650.31
2022-11-17T07:44:08.183Z,99656.03
2022-11-17T07:47:12.170Z,99662.41
2022-11-17T07:50:16.666Z,99650.94
2022-11-17T07:53:19.309Z,99665.56
2022-11-17T07:56:23.271Z,99656.00
2022-11-17T07:59:25.975Z,99656.75
2022-11-17T08:02:29.010Z,99660.09
2022-11-17T08:05:32.192Z,99659.00
2022-11-17T08:08:35.607Z,99655.34
2022-11-17T08:11:39.824Z,99645.91
2022-11-17T08:14:42.475Z,99652.88
2022-11-17T08:17:45.090Z,99645.06
2022-11-17T08:20:47.729Z,99653.31
2022-11-17T08:23:51.837Z,99652.69
2022-11-17T08:26:55.846Z,99651.63
2022-11-17T08:29:58.448Z,99643.38
2022-11-17T08:33:01.146Z,99639.28
2022-11-17T08:36:06.965Z,99627.78
2022-11-17T08:39:09.728Z,99639.09
2022-11-17T08:42:13.709Z,99628.91
2022-11-17T08:45:16.394Z,99636.34
2022-11-17T08:48:19.053Z,99621.38
2022-11-17T08:51:21.758Z,99619.91
2022-11-17T08:54:24.380Z,99623.59
2022-11-17T08:57:30.509Z,99619.91
2022-11-17T09:00:33.183Z,99614.59
2022-11-17T09:03:35.828Z,99617.63
2022-11-17T09:06:38.862Z,99625.66
2022-11-17T09:09:41.502Z,99616.69
2022-11-17T09:12:45.483Z,99623.72
2022-11-17T09:15:48.088Z,99604.38
2022-11-17T09:18:56.557Z,99611.09
2022-11-17T09:21:59.794Z,99622.09
2022-11-17T09:25:02.469Z,99609.56
2022-11-17T09:28:06.500Z,99613.06
2022-11-17T09:31:10.347Z,99607.25
2022-11-17T09:34:13.138Z,99601.88
2022-11-17T09:37:15.752Z,99597.66
2022-11-17T09:40:20.946Z,99602.50
2022-11-17T09:43:28.740Z,99614.38
2022-11-17T09:46:41.991Z,99600.16
2022-11-17T09:49:58.641Z,99592.84
2022-11-17T09:53:06.466Z,99592.50
2022-11-17T09:56:11.488Z,99586.72
2022-11-17T09:59:19.169Z,99604.63
2022-11-17T10:02:21.878Z,99605.81
2022-11-17T10:05:32.149Z,99605.31
2022-11-17T10:08:40.978Z,99596.19
2022-11-17T10:11:45.140Z,99589.50
2022-11-17T10:14:49.876Z,99599.78
2022-11-17T10:17:52.924Z,99582.78
2022-11-17T10:20:55.555Z,99578.50
2022-11-17T10:23:59.772Z,99579.75
2022-11-17T10:27:03.228Z,99574.63
2022-11-17T10:30:21.004Z,99574.22
2022-11-17T10:33:38.790Z,99577.25
2022-11-17T10:36:48.884Z,99572.53
2022-11-17T10:39:51.544Z,99564.34
2022-11-17T10:42:58.155Z,99570.88
2022-11-17T10:46:05.922Z,99547.59
2022-11-17T10:49:25.474Z,99548.56
2022-11-17T10:52:28.105Z,99553.69
2022-11-17T10:55:34.290Z,99559.94
2022-11-17T10:58:57.520Z,99542.63
2022-11-17T11:02:27.115Z,99544.91
2022-11-17T11:05:29.743Z,99549.72
2022-11-17T11:08:40.470Z,99531.09
2022-11-17T11:11:45.522Z,99528.84
2022-11-17T11:14:52.199Z,99531.94
2022-11-17T11:17:56.143Z,99528.66
2022-11-17T11:21:09.803Z,99534.91
2022-11-17T11:24:20.382Z,99508.00
2022-11-17T11:27:38.572Z,99528.91
2022-11-17T11:31:00.183Z,99521.84
2022-11-17T11:34:22.279Z,99536.81
2022-11-17T11:37:30.708Z,99529.38
2022-11-17T11:40:39.115Z,99525.59
2022-11-17T11:43:52.073Z,99519.94
2022-11-17T11:47:01.417Z,99512.47
2022-11-17T11:50:14.321Z,99511.09
2022-11-17T11:53:23.193Z,99517.53
2022-11-17T11:56:32.614Z,99513.31
2022-11-17T11:59:41.594Z,99511.44
2022-11-17T12:02:49.597Z,99515.44
2022-11-17T12:06:24.487Z,99512.00
2022-11-17T12:09:47.324Z,99504.66
2022-11-17T12:12:50.567Z,99506.47
2022-11-17T12:16:13.297Z,99498.63
2022-11-17T12:19:48.451Z,99506.88
2022-11-17T12:23:06.849Z,99511.97
2022-11-17T12:26:22.317Z,99505.88
2022-11-17T12:29:30.674Z,99513.94
2022-11-17T12:32:54.865Z,99509.44
2022-11-17T12:36:17.999Z,99516.09
2022-11-17T12:40:09.620Z,99519.53
2022-11-17T12:43:24.416Z,99509.41
2022-11-17T12:46:28.456Z,99520.13
2022-11-17T12:49:38.356Z,99517.41
2022-11-17T12:52:52.735Z,99522.25
2022-11-17T12:56:21.968Z,99510.53
2022-11-17T12:59:52.821Z,99518.78
2022-11-17T13:03:06.403Z,99523.25
2022-11-17T13:06:34.419Z,99525.56
2022-11-17T13:09:34.783Z,99522.69
2022-11-17T13:12:37.440Z,99526.31
2022-11-17T13:15:43.246Z,99517.16
2022-11-17T13:18:46.159Z,99515.78
2022-11-17T13:21:48.789Z,99514.69
2022-11-17T13:29:08.436Z,99518.41
2022-11-17T13:32:21.291Z,99512.03
2022-11-17T13:35:26.295Z,99519.38
2022-11-17T13:38:28.922Z,99505.56
2022-11-17T13:41:38.371Z,99519.47
2022-11-17T13:44:41.082Z,99507.59
2022-11-17T13:47:47.793Z,99511.38
2022-11-17T13:50:50.425Z,99521.97
2022-11-17T13:53:55.968Z,99515.38
2022-11-17T13:57:04.766Z,99506.31
2022-11-17T14:00:17.116Z,99525.97
2022-11-17T14:03:33.665Z,99522.25
2022-11-17T14:06:55.852Z,99533.19
2022-11-17T14:10:13.120Z,99522.00
2022-11-17T14:13:22.079Z,99531.56
2022-11-17T14:16:27.557Z,99525.41
2022-11-17T14:19:35.189Z,99531.31
2022-11-17T14:22:37.851Z,99522.34
2022-11-17T14:25:43.453Z,99525.94
2022-11-17T14:28:46.264Z,99526.91
2022-11-17T14:31:48.930Z,99529.84
2022-11-17T14:34:52.908Z,99538.03
2022-11-17T14:37:56.091Z,99536.34
2022-11-17T14:40:58.875Z,99530.47
2022-11-17T14:44:01.512Z,99538.91
2022-11-17T14:47:04.285Z,99530.84
2022-11-17T14:50:13.064Z,99539.16
2022-11-17T14:53:16.018Z,99537.19
2022-11-17T14:56:20.466Z,99536.03
2022-11-17T14:59:23.105Z,99550.09
2022-11-17T15:02:25.948Z,99547.78
2022-11-17T15:05:29.916Z,99544.28
2022-11-17T15:08:32.554Z,99551.19
2022-11-17T15:11:39.297Z,99557.00
2022-11-17T15:14:42.166Z,99550.03
2022-11-17T15:17:45.096Z,99559.34
2022-11-17T15:20:49.121Z,99556.28
2022-11-17T15:23:52.131Z,99570.72
2022-11-17T15:26:54.776Z,99562.13
2022-11-17T15:29:57.477Z,99574.00
2022-11-17T15:33:01.124Z,99571.56
2022-11-17T15:36:06.817Z,99565.44
2022-11-17T15:39:09.761Z,99568.44
2022-11-17T15:42:12.379Z,99574.56
2022-11-17T15:45:15.608Z,99572.78
2022-11-17T15:48:18.943Z,99577.31
2022-11-17T15:51:24.360Z,99573.78
2022-11-17T15:54:26.980Z,99590.03
2022-11-17T15:57:29.591Z,99579.66
2022-11-17T16:00:34.372Z,99576.84
2022-11-17T16:03:37.084Z,99580.97
2022-11-17T16:06:42.739Z,99573.91
2022-11-17T16:09:49.150Z,99579.13
2022-11-17T16:12:53.061Z,99596.97
2022-11-17T16:15:55.908Z,99586.69
2022-11-17T16:18:58.596Z,99587.16
2022-11-17T16:22:02.606Z,99583.06
2022-11-17T16:25:07.184Z,99589.38
2022-11-17T16:28:10.786Z,99593.69
2022-11-17T16:31:16.327Z,99605.78
2022-11-17T16:34:19.133Z,99588.47
2022-11-17T16:37:23.098Z,99598.63
2022-11-17T16:40:25.704Z,99591.59
2022-11-17T16:43:28.382Z,99590.16
2022-11-17T16:46:32.574Z,99591.50
2022-11-17T16:49:36.109Z,99591.25
2022-11-17T16:52:40.061Z,99594.16
2022-11-17T16:55:42.721Z,99591.69
2022-11-17T16:58:45.345Z,99586.47
2022-11-17T17:01:48.465Z,99593.31
2022-11-17T17:04:51.079Z,99591.72
2022-11-17T17:07:55.061Z,99600.47
2022-11-17T17:11:02.654Z,99594.75
2022-11-17T17:14:08.190Z,99619.78
2022-11-17T17:17:10.828Z,99609.22
2022-11-17T17:20:13.444Z,99610.34
2022-11-17T17:23:17.463Z,99614.44
2022-11-17T17:26:22.318Z,99614.38
2022-11-17T17:29:24.977Z,99604.00
2022-11-17T17:32:27.616Z,99615.59
2022-11-17T17:35:30.250Z,99615.84
2022-11-17T17:38:34.422Z,99620.41
2022-11-17T17:41:40.813Z,99620.34
2022-11-17T17:44:43.459Z,99622.97
2022-11-17T17:47:46.082Z,99620.31
2022-11-17T17:50:49.117Z,99629.81
2022-11-17T17:53:53.663Z,99617.19
2022-11-17T17:56:57.624Z,99631.16
2022-11-17T18:00:00.335Z,99634.72
2022-11-17T18:03:03.000Z,99641.44
2022-11-17T18:06:06.482Z,99642.16
2022-11-17T18:09:14.343Z,99655.06
2022-11-17T18:12:17.448Z,99648.91
2022-11-17T18:15:20.100Z,99651.09
2022-11-17T18:18:22.757Z,99647.56
2022-11-17T18:21:25.771Z,99653.28
2022-11-17T18:24:29.750Z,99651.34
2022-11-17T18:27:32.364Z,99658.06
2022-11-17T18:30:35.001Z,99658.94
2022-11-17T18:33:38.269Z,99653.22
2022-11-17T18:36:40.949Z,99652.56
2022-11-17T18:39:44.937Z,99654.97
2022-11-17T18:42:47.562Z,99661.78
2022-11-17T18:45:50.191Z,99646.06
2022-11-17T18:48:53.353Z,99664.28
2022-11-17T18:51:55.952Z,99666.19
2022-11-17T18:55:00.798Z,99655.53
2022-11-17T18:58:03.406Z,99663.41
2022-11-17T19:01:08.763Z,99672.47
2022-11-17T19:04:13.501Z,99671.53
2022-11-17T19:07:16.251Z,99670.69
2022-11-17T19:10:21.255Z,99673.84
2022-11-17T19:13:24.201Z,99678.28
2022-11-17T19:16:27.423Z,99676.63
2022-11-17T19:19:30.021Z,99684.38
2022-11-17T19:22:32.631Z,99686.38
2022-11-17T19:25:38.998Z,99697.22
2022-11-17T19:28:41.977Z,99685.41
2022-11-17T19:31:44.846Z,99699.13
2022-11-17T19:34:47.506Z,99702.41
2022-11-17T19:37:50.236Z,99707.81
2022-11-17T19:40:54.206Z,99706.31
2022-11-17T19:43:58.501Z,99711.13
2022-11-17T19:47:01.121Z,99705.31
2022-11-17T19:50:03.822Z,99718.84
2022-11-17T19:53:06.444Z,99722.13
2022-11-17T19:56:10.453Z,99721.44
2022-11-17T19:59:16.482Z,99724.56
2022-11-17T20:02:19.545Z,99713.63
2022-11-17T20:05:22.226Z,99725.69
2022-11-17T20:08:24.848Z,99732.09
2022-11-17T20:11:29.821Z,99735.03
2022-11-17T20:14:33.068Z,99726.53
2022-11-17T20:17:35.726Z,99731.19
2022-11-17T20:20:38.344Z,99731.56
2022-11-17T20:23:41.125Z,99730.38
2022-11-17T20:26:46.220Z,99732.13
2022-11-17T20:29:48.900Z,99730.22
2022-11-17T20:32:51.529Z,99736.47
2022-11-17T20:35:54.157Z,99736.75
2022-11-17T20:38:58.197Z,99748.22
2022-11-17T20:42:02.184Z,99741.34
2022-11-17T20:45:05.220Z,99742.72
2022-11-17T20:48:08.187Z,99749.44
2022-11-17T20:51:12.589Z,99751.19
2022-11-17T20:54:15.353Z,99750.28
2022-11-17T20:57:19.348Z,99754.59
2022-11-17T21:00:21.975Z,99752.06
2022-11-17T21:03:26.742Z,99757.84
2022-11-17T21:06:29.576Z,99757.09
2022-11-17T21:09:32.276Z,99753.75
2022-11-17T21:12:36.231Z,99757.75
2022-11-17T21:15:38.904Z,99750.81
2022-11-17T21:18:47.397Z,99751.00
2022-11-17T21:21:50.790Z,99761.22
2022-11-17T21:24:53.421Z,99761.31
2022-11-17T21:27:59.313Z,99761.34
2022-11-17T21:31:07.656Z,99760.94
2022-11-17T21:34:15.907Z,99773.75
2022-11-17T21:37:18.543Z,99772.59
2022-11-17T21:40:21.199Z,99766.78
2022-11-17T21:43:25.184Z,99762.63
2022-11-17T21:46:31.018Z,99780.09
2022-11-17T21:49:33.650Z,99777.38
2022-11-17T21:52:36.436Z,99782.50
2022-11-17T21:55:39.188Z,99790.09
2022-11-17T21:58:43.160Z,99785.69
2022-11-17T22:01:45.848Z,99798.94
2022-11-17T22:04:48.461Z,99797.41
2022-11-17T22:07:51.062Z,99802.53
2022-11-17T22:10:53.712Z,99801.56
2022-11-17T22:13:58.375Z,99798.91
2022-11-17T22:17:01.612Z,99807.41
2022-11-17T22:20:05.060Z,99802.53
2022-11-17T22:23:07.684Z,99810.03
2022-11-17T22:26:11.978Z,99818.06
2022-11-17T22:29:18.268Z,99814.44
2022-11-17T22:32:21.225Z,99819.91
2022-11-17T22:35:23.892Z,99824.81
2022-11-17T22:38:29.063Z,99823.06
2022-11-17T22:41:31.899Z,99828.50
2022-11-17T22:44:35.847Z,99838.53
2022-11-17T22:47:41.101Z,99824.44
2022-11-17T22:50:43.819Z,99823.84
2022-11-17T22:53:46.407Z,99837.78
2022-11-17T22:56:49.101Z,99833.66
2022-11-17T22:59:53.095Z,99845.66
2022-11-17T23:02:55.882Z,99840.13
2022-11-17T23:06:02.054Z,99853.97
2022-11-17T23:09:04.985Z,99842.00
2022-11-17T23:12:07.894Z,99856.53
2022-11-17T23:15:12.045Z,99856.91
2022-11-17T23:18:14.728Z,99864.47
2022-11-17T23:21:17.341Z,99858.75
2022-11-17T23:24:20.039Z,99864.47
2022-11-17T23:27:22.627Z,99860.91
2022-11-17T23:30:26.629Z,99868.50
2022-11-17T23:33:34.447Z,99860.75
2022-11-17T23:36:37.126Z,99870.94
2022-11-17T23:39:39.764Z,99869.50
2022-11-17T23:42:43.343Z,99880.28
2022-11-17T23:45:47.414Z,99867.78
2022-11-17T23:48:50.291Z,99876.38
2022-11-17T23:51:52.950Z,99872.22
2022-11-17T23:54:55.632Z,99878.91
2022-11-17T23:57:58.409Z,99884.03
